首页
METAR-TAF:

METAR-TAF

机场 :

阿根廷港, 福克兰群岛

纬度: 51-49S, 经度: 058-27W, 海拔: 74米

当前天气观测

该预报发布于47分钟前的17:20 UTC
风速14节,风向西南
温度 6°C
湿度 65%
气压 1009 hPa
能见度10公里或以上
1500米以下无云,无积雨云

METAR: EGYP 241720Z 23014KT CAVOK 06/00 Q1009 NOSIG

时间: 15:07 (18:07 UTC)

预报

该预报发布于1小时和24分钟前的16:43 UTC
预报有效从24日的 18点(UTC)到 25日的 12点(UTC)
风速15节,风向西
能见度10公里或以上
少量云层高于3000英尺
成为
从 24日的 19点(UTC)到 24日的 22点(UTC)
风速15节,风向北转西北
几率 30% :
短暂存在
从 24日的 20点(UTC)到 25日的 12点(UTC)
风速7节,风向多变
散云层高于1200英尺
成为
从 24日的 22点(UTC)到 25日的 01点(UTC)
风速22节,风向,有时为32节阵风
短暂存在
从 25日的 01点(UTC)到 25日的 12点(UTC)
风速32节,风向,有时为47节阵风
短暂存在
从 25日的 05点(UTC)到 25日的 12点(UTC)
能見度: 7000
多云层高于1500英尺
雨,

TAF: EGYP 241643Z 2418/2512 26015KT 9999 FEW030 BECMG 2419/2422 34015KT 520003 PROB30 TEMPO 2420/2512 VRB07KT SCT012 560003 BECMG 2422/2501 35022G32KT 520003 TEMPO 2501/2512 36032G47KT 530003 TEMPO 2505/2512 7000 RA BKN015

超过4000个机场的气象观测和天气预报(METAR&TAF报告)。

可查询的气象台以黄色和红色小点在地图上表示。

将鼠标移到小点上方,可查看气象台名称。

然后点击查看天气观测和预报。

如需切换地图:点击带黑十字的绿色按钮放大地图;点击带横线的绿色按钮缩小地图;或者点击绿色箭头查看邻近地区的地图。


METAR-TAF: